TAF LFRT
METAR LFRT
LFRT 090700Z AUTO 22007KT CAVOK 04/02 Q1007=
LFRT 082200Z AUTO 25011KT CAVOK 03/01 Q1007=
LFRT 082130Z AUTO 25010KT 9999 FEW043 03/01 Q1007=
LFRT 082100Z AUTO 26011KT 9999 -RA FEW015 BKN027 BKN041 04/01 Q1006=
LFRT 082030Z AUTO 26009KT 9999 ///TCU 03/01 Q1006=
WC LFRT
WS LFRT
WV LFRT